.
WxDataArchive / Data Records for 2015-09-26
2015-09-25 September 2015 2015-09-27

Data Records for Saturday, 26 September 2015

Time	Temp	Chill	HIndex	Humid	Dewpt	 Wind 	HiWind	WindDir	Rain 	Barom
-----	----	-----	------	-----	-----	------	------	-------	-----	-----
00:00	61.8	61.8	61.8	81	55.9	0	1	90	0.00	30.203 
00:05	61.6	61.6	61.6	82	56.0	0	1	90	0.00	30.203 
00:10	61.6	61.6	61.6	83	56.4	0	2	90	0.00	30.203 
00:15	61.5	61.5	61.5	83	56.3	0	2	90	0.00	30.197 
00:20	61.5	61.5	61.5	84	56.6	0	1	90	0.00	30.197 
00:25	61.5	61.5	61.5	84	56.6	0	1	90	0.00	30.197 
00:30	61.3	61.3	61.3	85	56.7	0	1	90	0.00	30.196 
00:35	61.3	61.3	61.3	85	56.7	0	0	---	0.00	30.196 
00:40	61.3	61.3	61.3	86	57.1	0	0	---	0.00	30.196 
00:45	61.2	61.2	61.2	86	57.0	0	1	90	0.00	30.200 
00:50	61.2	61.2	61.2	87	57.3	0	0	---	0.00	30.200 
00:55	61.2	61.2	61.2	87	57.3	0	0	---	0.00	30.200 
01:00	61.0	61.0	61.0	87	57.1	0	0	---	0.00	30.203 
01:05	60.9	60.9	60.9	87	57.0	0	0	---	0.00	30.203 
01:10	60.7	60.7	60.7	87	56.8	0	0	---	0.00	30.203 
01:15	60.5	60.5	60.5	88	56.9	0	0	---	0.00	30.199 
01:20	60.5	60.5	60.5	88	56.9	0	0	---	0.00	30.199 
01:25	60.4	60.4	60.4	88	56.8	0	0	---	0.00	30.199 
01:30	60.2	60.2	60.2	88	56.6	0	0	---	0.00	30.198 
01:35	60.1	60.1	60.1	89	56.8	0	0	---	0.00	30.198 
01:40	60.2	60.2	60.2	89	56.9	0	0	---	0.00	30.198 
01:45	60.2	60.2	60.2	90	57.3	0	0	---	0.00	30.198 
01:50	60.2	60.2	60.2	90	57.3	0	0	---	0.00	30.198 
01:55	60.2	60.2	60.2	91	57.6	0	0	---	0.00	30.198 
02:00	60.2	60.2	60.2	91	57.6	0	0	---	0.00	30.199 
02:05	60.2	60.2	60.2	91	57.6	0	0	---	0.00	30.199 
02:10	60.2	60.2	60.2	91	57.6	0	0	---	0.00	30.199 
02:15	60.2	60.2	60.2	91	57.6	0	0	---	0.00	30.199 
02:20	60.2	60.2	60.2	92	57.9	0	0	---	0.00	30.199 
02:25	60.1	60.1	60.1	92	57.8	0	0	---	0.00	30.199 
02:30	60.1	60.1	60.1	92	57.8	0	0	---	0.00	30.198 
02:35	60.2	60.2	60.2	92	57.9	0	1	90	0.00	30.198 
02:40	60.2	60.2	60.2	92	57.9	0	1	90	0.00	30.198 
02:45	60.1	60.1	60.1	92	57.8	0	0	---	0.00	30.197 
02:50	60.1	60.1	60.1	92	57.8	0	0	---	0.00	30.197 
02:55	59.9	59.9	59.9	92	57.6	0	0	---	0.00	30.197 
03:00	59.8	59.8	59.8	92	57.5	0	0	---	0.00	30.196 
03:05	59.6	59.6	59.6	92	57.3	0	0	---	0.00	30.196 
03:10	59.3	59.3	59.3	92	57.0	0	0	---	0.00	30.196 
03:15	59.3	59.3	59.3	92	57.0	0	0	---	0.00	30.195 
03:20	59.2	59.2	59.2	93	57.2	0	0	---	0.00	30.195 
03:25	59.2	59.2	59.2	93	57.2	0	1	90	0.00	30.195 
03:30	59.3	59.3	59.3	93	57.3	0	1	90	0.00	30.195 
03:35	59.3	59.3	59.3	93	57.3	0	0	---	0.00	30.195 
03:40	59.3	59.3	59.3	93	57.3	0	1	90	0.00	30.195 
03:45	59.3	59.3	59.3	93	57.3	0	1	90	0.00	30.193 
03:50	59.2	59.2	59.2	93	57.2	0	0	---	0.00	30.193 
03:55	59.0	59.0	59.0	93	57.0	0	0	---	0.00	30.193 
04:00	58.9	58.9	58.9	93	56.9	0	0	---	0.00	30.194 
04:05	58.9	58.9	58.9	93	56.9	0	0	---	0.00	30.194 
04:10	58.9	58.9	58.9	94	57.2	0	0	---	0.00	30.194 
04:15	58.9	58.9	58.9	94	57.2	0	2	90	0.00	30.194 
04:20	59.0	59.0	59.0	94	57.3	0	1	90	0.00	30.194 
04:25	59.0	59.0	59.0	94	57.3	0	1	90	0.00	30.194 
04:30	59.0	59.0	59.0	94	57.3	0	0	---	0.00	30.193 
04:35	58.9	58.9	58.9	94	57.2	0	1	90	0.00	30.193 
04:40	58.9	58.9	58.9	94	57.2	0	2	90	0.00	30.193 
04:45	58.9	58.9	58.9	94	57.2	0	1	90	0.00	30.194 
04:50	59.0	59.0	59.0	94	57.3	0	2	90	0.00	30.194 
04:55	58.9	58.9	58.9	94	57.2	0	1	90	0.00	30.194 
05:00	58.9	58.9	58.9	94	57.2	0	1	90	0.00	30.194 
05:05	58.7	58.7	58.7	94	57.0	0	1	90	0.00	30.194 
05:10	58.7	58.7	58.7	94	57.0	0	1	90	0.00	30.194 
05:15	58.7	58.7	58.7	94	57.0	0	0	---	0.00	30.195 
05:20	58.6	58.6	58.6	94	56.9	0	0	---	0.00	30.195 
05:25	58.6	58.6	58.6	94	56.9	0	0	---	0.00	30.195 
05:30	58.6	58.6	58.6	95	57.2	0	1	90	0.00	30.198 
05:35	58.6	58.6	58.6	95	57.2	0	1	90	0.00	30.198 
05:40	58.6	58.6	58.6	95	57.2	0	1	90	0.00	30.198 
05:45	58.6	58.6	58.6	95	57.2	0	0	---	0.00	30.203 
05:50	58.6	58.6	58.6	95	57.2	0	0	---	0.00	30.203 
05:55	58.6	58.6	58.6	95	57.2	0	2	90	0.00	30.203 
06:00	58.6	58.6	58.6	95	57.2	0	4	90	0.00	30.205 
06:05	58.7	58.7	58.7	95	57.3	0	2	90	0.00	30.205 
06:10	58.7	58.7	58.7	95	57.3	0	2	90	0.00	30.205 
06:15	58.7	58.7	58.7	95	57.3	0	2	90	0.00	30.207 
06:20	58.9	58.9	58.9	95	57.5	0	3	90	0.00	30.207 
06:25	58.9	58.9	58.9	95	57.5	0	3	90	0.00	30.207 
06:30	58.9	58.9	58.9	95	57.5	0	2	90	0.00	30.208 
06:35	58.9	58.9	58.9	95	57.5	0	1	90	0.00	30.208 
06:40	58.9	58.9	58.9	95	57.5	0	1	90	0.00	30.208 
06:45	58.9	58.9	58.9	95	57.5	0	1	90	0.00	30.213 
06:50	58.9	58.9	58.9	95	57.5	1	5	90	0.00	30.213 
06:55	58.9	58.9	58.9	95	57.5	0	3	90	0.00	30.213 
07:00	58.9	58.9	58.9	95	57.5	0	2	90	0.00	30.215 
07:05	58.9	58.9	58.9	95	57.5	1	3	90	0.00	30.215 
07:10	58.9	58.9	58.9	95	57.5	0	3	90	0.00	30.215 
07:15	58.9	58.9	58.9	95	57.5	1	3	90	0.00	30.226 
07:20	58.9	58.9	58.9	95	57.5	0	2	90	0.00	30.226 
07:25	58.7	58.7	58.7	95	57.3	0	1	90	0.00	30.226 
07:30	58.7	58.7	58.7	94	57.0	0	3	90	0.00	30.232 
07:35	58.6	58.6	58.6	95	57.2	0	2	90	0.00	30.232 
07:40	58.6	58.6	58.6	94	56.9	0	3	90	0.00	30.232 
07:45	58.4	58.4	58.4	94	56.7	0	2	90	0.00	30.234 
07:50	58.3	58.3	58.3	94	56.6	0	2	90	0.00	30.234 
07:55	58.3	58.3	58.3	94	56.6	0	2	90	0.00	30.234 
08:00	58.1	58.1	58.1	94	56.4	0	1	90	0.00	30.234 
08:05	58.1	58.1	58.1	95	56.7	0	1	90	0.00	30.234 
08:10	58.1	58.1	58.1	95	56.7	0	3	90	0.00	30.234 
08:15	58.1	58.1	58.1	95	56.7	0	2	90	0.00	30.241 
08:20	58.3	58.3	58.3	95	56.9	0	3	90	0.00	30.241 
08:25	58.3	58.3	58.3	95	56.9	0	0	---	0.00	30.241 
08:30	58.4	58.4	58.4	95	57.0	0	1	90	0.00	30.244 
08:35	58.4	58.4	58.4	95	57.0	0	2	90	0.00	30.244 
08:40	58.6	58.6	58.6	95	57.2	0	2	90	0.00	30.244 
08:45	58.7	58.7	58.7	95	57.3	0	2	90	0.00	30.244 
08:50	58.9	58.9	58.9	94	57.2	0	2	90	0.00	30.244 
08:55	59.0	59.0	59.0	94	57.3	0	2	90	0.00	30.244 
09:00	59.2	59.2	59.2	94	57.5	0	2	90	0.00	30.246 
09:05	59.3	59.3	59.3	94	57.6	0	3	90	0.00	30.246 
09:10	59.5	59.5	59.5	94	57.8	1	5	90	0.00	30.246 
09:15	59.8	59.8	59.8	93	57.8	0	3	90	0.00	30.250 
09:20	59.9	59.9	59.9	93	57.9	1	4	90	0.00	30.250 
09:25	60.1	60.1	60.1	92	57.8	1	6	90	0.00	30.250 
09:30	60.4	60.4	60.4	92	58.1	1	4	112	0.00	30.251 
09:35	60.5	60.5	60.5	91	57.9	2	5	112	0.00	30.251 
09:40	60.7	60.7	60.7	91	58.1	1	3	68	0.00	30.251 
09:45	61.0	61.0	61.0	90	58.0	2	5	45	0.00	30.252 
09:50	61.2	61.2	61.2	90	58.2	2	6	68	0.00	30.252 
09:55	61.3	61.3	61.3	89	58.0	1	4	90	0.00	30.252 
10:00	61.6	61.6	61.6	88	58.0	0	4	90	0.00	30.249 
10:05	62.0	62.0	62.0	88	58.4	1	4	90	0.00	30.249 
10:10	62.1	62.1	62.1	87	58.2	1	4	90	0.00	30.249 
10:15	62.4	62.4	62.4	86	58.2	2	5	90	0.00	30.252 
10:20	62.6	62.6	62.6	85	58.0	2	5	90	0.00	30.252 
10:25	62.9	62.9	62.9	84	58.0	1	4	90	0.00	30.252 
10:30	63.2	63.2	63.2	84	58.3	0	3	90	0.00	30.251 
10:35	63.7	63.7	63.7	83	58.4	1	4	90	0.00	30.251 
10:40	64.2	64.2	64.2	81	58.2	1	4	90	0.00	30.251 
10:45	64.8	64.8	64.8	80	58.5	1	5	90	0.00	30.250 
10:50	65.3	65.3	65.3	78	58.3	1	5	90	0.00	30.250 
10:55	65.6	65.6	65.6	77	58.2	0	3	90	0.00	30.250 
11:00	66.0	66.0	66.0	77	58.6	1	4	90	0.00	30.252 
11:05	66.0	66.0	66.0	75	57.8	2	5	90	0.00	30.252 
11:10	66.0	66.0	66.0	75	57.8	1	4	90	0.00	30.252 
11:15	66.4	66.4	66.4	75	58.2	0	3	90	0.00	30.251 
11:20	66.4	66.4	66.4	72	57.1	2	5	90	0.00	30.251 
11:25	66.6	66.6	66.6	71	56.9	2	6	90	0.00	30.251 
11:30	66.8	66.8	66.8	71	57.1	1	4	90	0.00	30.250 
11:35	66.9	66.9	66.9	70	56.8	2	6	90	0.00	30.250 
11:40	67.1	67.1	67.1	69	56.6	1	3	90	0.00	30.250 
11:45	67.4	67.4	67.4	68	56.5	1	4	68	0.00	30.247 
11:50	67.6	67.6	67.6	67	56.2	2	5	68	0.00	30.247 
11:55	67.6	67.6	67.6	66	55.8	2	6	68	0.00	30.247 
12:00	67.6	67.6	67.6	66	55.8	2	6	90	0.00	30.245 
12:05	67.8	67.8	67.8	67	56.4	0	2	90	0.00	30.245 
12:10	67.9	67.9	67.9	66	56.1	1	4	90	0.00	30.245 
12:15	68.1	68.1	68.1	66	56.3	2	5	68	0.00	30.244 
12:20	68.1	68.1	68.1	65	55.9	2	5	68	0.00	30.244 
12:25	68.1	68.1	68.1	64	55.5	3	6	68	0.00	30.244 
12:30	68.1	68.1	68.1	64	55.5	2	5	90	0.00	30.244 
12:35	68.3	68.3	68.3	65	56.1	1	4	68	0.00	30.244 
12:40	68.4	68.4	68.4	64	55.7	1	5	68	0.00	30.244 
12:45	68.6	68.6	68.6	64	55.9	1	4	68	0.00	30.235 
12:50	68.6	68.6	68.6	63	55.5	2	6	68	0.00	30.235 
12:55	68.8	68.8	68.8	63	55.7	2	5	68	0.00	30.235 
13:00	68.8	68.8	68.8	62	55.2	1	5	90	0.00	30.233 
13:05	68.8	68.8	68.8	61	54.8	3	6	90	0.00	30.233 
13:10	68.9	68.9	68.9	62	55.3	1	4	90	0.00	30.233 
13:15	69.1	69.1	69.1	62	55.5	1	5	90	0.00	30.232 
13:20	69.3	69.3	69.3	62	55.7	1	3	90	0.00	30.232 
13:25	69.6	69.6	69.6	61	55.5	2	7	68	0.00	30.232 
13:30	69.8	69.8	69.8	59	54.8	2	6	90	0.00	30.222 
13:35	69.9	69.9	69.9	57	54.0	2	6	90	0.00	30.222 
13:40	70.4	70.4	70.4	57	54.4	2	5	90	0.00	30.222 
13:45	70.8	70.8	70.8	54	53.3	2	7	68	0.00	30.215 
13:50	70.9	70.9	70.9	51	51.9	3	6	90	0.00	30.215 
13:55	70.9	70.9	70.9	51	51.9	3	6	90	0.00	30.215 
14:00	70.9	70.9	70.9	53	52.9	2	9	68	0.00	30.211 
14:05	70.9	70.9	70.9	51	51.9	3	10	68	0.00	30.211 
14:10	70.9	70.9	70.9	53	52.9	2	6	90	0.00	30.211 
14:15	70.8	70.8	70.8	53	52.8	3	9	90	0.00	30.207 
14:20	70.6	70.6	70.6	53	52.6	2	8	90	0.00	30.207 
14:25	70.6	70.6	70.6	52	52.1	3	6	68	0.00	30.207 
14:30	70.6	70.6	70.6	53	52.6	2	6	90	0.00	30.201 
14:35	70.8	70.8	70.8	53	52.8	2	7	112	0.00	30.201 
14:40	70.9	70.9	70.9	53	52.9	1	3	112	0.00	30.201 
14:45	70.9	70.9	70.9	51	51.9	3	6	90	0.00	30.196 
14:50	71.1	71.1	71.1	49	51.0	2	4	68	0.00	30.196 
14:55	71.5	71.5	71.5	48	50.8	2	6	68	0.00	30.196 
15:00	71.8	71.8	71.8	47	50.5	2	5	90	0.00	30.191 
15:05	72.5	72.5	72.5	46	50.5	2	6	90	0.00	30.191 
15:10	73.0	73.0	73.0	45	50.4	3	7	90	0.00	30.191 
15:15	73.3	73.3	73.3	43	49.4	2	6	90	0.00	30.184 
15:20	73.7	73.7	73.7	43	49.8	2	6	90	0.00	30.184 
15:25	73.7	73.7	73.7	43	49.8	3	8	90	0.00	30.184 
15:30	73.7	73.7	73.7	43	49.8	2	9	90	0.00	30.182 
15:35	73.9	73.9	73.9	44	50.6	2	6	90	0.00	30.182 
15:40	74.0	74.0	74.0	42	49.4	2	9	90	0.00	30.182 
15:45	74.2	74.2	74.2	43	50.2	2	5	90	0.00	30.176 
15:50	74.4	74.4	74.4	42	49.8	3	8	90	0.00	30.176 
15:55	74.4	74.4	74.4	42	49.8	2	5	90	0.00	30.176 
16:00	74.4	74.4	74.4	42	49.8	2	7	112	0.00	30.170 
16:05	74.2	74.2	74.2	41	49.0	2	5	90	0.00	30.170 
16:10	74.0	74.0	74.0	43	50.1	2	6	90	0.00	30.170 
16:15	73.9	73.9	73.9	45	51.2	1	7	90	0.00	30.168 
16:20	73.7	73.7	73.7	44	50.4	2	7	90	0.00	30.168 
16:25	73.7	73.7	73.7	43	49.8	2	6	90	0.00	30.168 
16:30	73.5	73.5	73.5	44	50.2	1	6	90	0.00	30.166 
16:35	73.5	73.5	73.5	43	49.6	2	6	90	0.00	30.166 
16:40	73.9	73.9	73.9	43	50.0	2	8	90	0.00	30.166 
16:45	74.2	74.2	74.2	44	50.9	2	6	68	0.00	30.158 
16:50	74.4	74.4	74.4	44	51.0	2	9	90	0.00	30.158 
16:55	74.6	74.6	74.6	44	51.2	2	7	112	0.00	30.158 
17:00	74.7	74.7	74.7	46	52.5	2	5	90	0.00	30.152 
17:05	74.7	74.7	74.7	46	52.5	3	6	68	0.00	30.152 
17:10	74.6	74.6	74.6	48	53.6	2	8	90	0.00	30.152 
17:15	74.6	74.6	74.6	47	53.0	4	11	90	0.00	30.150 
17:20	74.4	74.4	74.4	47	52.8	3	11	90	0.00	30.150 
17:25	74.2	74.2	74.2	48	53.2	2	7	90	0.00	30.150 
17:30	74.0	74.0	74.0	49	53.6	2	5	68	0.00	30.151 
17:35	74.0	74.0	74.0	49	53.6	3	6	90	0.00	30.151 
17:40	73.9	73.9	73.9	49	53.5	3	8	90	0.00	30.151 
17:45	74.0	74.0	74.0	49	53.6	3	7	90	0.00	30.152 
17:50	74.0	74.0	74.0	50	54.2	2	6	68	0.00	30.152 
17:55	74.0	74.0	74.0	49	53.6	3	6	90	0.00	30.152 
18:00	74.2	74.2	74.2	48	53.2	3	10	90	0.00	30.151 
18:05	74.2	74.2	74.2	47	52.7	3	6	90	0.00	30.151 
18:10	74.6	74.6	74.6	48	53.6	2	4	112	0.00	30.151 
18:15	74.7	74.7	74.7	49	54.3	2	6	90	0.00	30.149 
18:20	74.9	74.9	74.9	47	53.3	4	9	90	0.00	30.149 
18:25	74.7	74.7	74.7	49	54.3	2	6	68	0.00	30.149 
18:30	74.7	74.7	74.7	49	54.3	2	5	112	0.00	30.150 
18:35	74.4	74.4	74.4	50	54.5	3	6	90	0.00	30.150 
18:40	74.0	74.0	74.0	50	54.2	2	7	90	0.00	30.150 
18:45	73.7	73.7	73.7	51	54.4	2	5	90	0.00	30.154 
18:50	73.5	73.5	73.5	51	54.2	2	7	68	0.00	30.154 
18:55	73.3	73.3	73.3	51	54.1	2	6	68	0.00	30.154 
19:00	73.3	73.3	73.3	52	54.6	2	6	90	0.00	30.158 
19:05	73.0	73.0	73.0	53	54.8	1	4	68	0.00	30.158 
19:10	72.5	72.5	72.5	54	54.9	2	5	68	0.00	30.158 
19:15	72.0	72.0	72.0	55	54.9	2	5	68	0.00	30.164 
19:20	71.5	71.5	71.5	56	55.0	1	5	90	0.00	30.164 
19:25	71.1	71.1	71.1	57	55.1	1	4	90	0.00	30.164 
19:30	70.9	70.9	70.9	57	54.9	1	4	90	0.00	30.165 
19:35	70.8	70.8	70.8	57	54.8	1	4	68	0.00	30.165 
19:40	70.6	70.6	70.6	58	55.1	1	3	68	0.00	30.165 
19:45	70.4	70.4	70.4	58	54.9	1	5	68	0.00	30.163 
19:50	70.3	70.3	70.3	59	55.3	1	3	68	0.00	30.163 
19:55	70.1	70.1	70.1	59	55.1	1	6	90	0.00	30.163 
20:00	70.1	70.1	70.1	59	55.1	2	6	112	0.00	30.163 
20:05	69.9	69.9	69.9	60	55.4	1	3	45	0.00	30.163 
20:10	69.8	69.8	69.8	60	55.3	2	4	45	0.00	30.163 
20:15	69.8	69.8	69.8	61	55.7	1	4	90	0.00	30.161 
20:20	69.6	69.6	69.6	62	56.0	1	3	90	0.00	30.161 
20:25	69.6	69.6	69.6	62	56.0	0	2	90	0.00	30.161 
20:30	69.4	69.4	69.4	62	55.8	1	4	90	0.00	30.162 
20:35	69.3	69.3	69.3	63	56.2	1	4	90	0.00	30.162 
20:40	69.3	69.3	69.3	63	56.2	1	4	90	0.00	30.162 
20:45	69.1	69.1	69.1	64	56.4	1	5	68	0.00	30.167 
20:50	68.9	68.9	68.9	65	56.6	0	3	68	0.00	30.167 
20:55	68.9	68.9	68.9	65	56.6	0	2	68	0.00	30.167 
21:00	68.8	68.8	68.8	65	56.5	0	1	68	0.00	30.170 
21:05	68.6	68.6	68.6	66	56.8	1	2	68	0.00	30.170 
21:10	68.6	68.6	68.6	66	56.8	0	2	68	0.00	30.170 
21:15	68.6	68.6	68.6	66	56.8	0	2	68	0.00	30.168 
21:20	68.6	68.6	68.6	66	56.8	0	1	68	0.00	30.168 
21:25	68.6	68.6	68.6	66	56.8	0	1	68	0.00	30.168 
21:30	68.6	68.6	68.6	65	56.4	0	3	68	0.00	30.169 
21:35	68.8	68.8	68.8	65	56.5	0	3	68	0.00	30.169 
21:40	68.8	68.8	68.8	65	56.5	2	5	68	0.00	30.169 
21:45	68.9	68.9	68.9	65	56.6	0	2	90	0.00	30.170 
21:50	68.9	68.9	68.9	65	56.6	0	2	90	0.00	30.170 
21:55	68.8	68.8	68.8	65	56.5	1	4	90	0.00	30.170 
22:00	68.8	68.8	68.8	65	56.5	0	2	90	0.00	30.171 
22:05	68.8	68.8	68.8	65	56.5	0	2	90	0.00	30.171 
22:10	68.8	68.8	68.8	65	56.5	0	2	90	0.00	30.171 
22:15	68.8	68.8	68.8	66	57.0	0	1	90	0.00	30.167 
22:20	68.6	68.6	68.6	65	56.4	0	1	90	0.00	30.167 
22:25	68.8	68.8	68.8	65	56.5	0	3	90	0.00	30.167 
22:30	68.8	68.8	68.8	65	56.5	0	1	90	0.00	30.168 
22:35	68.8	68.8	68.8	65	56.5	0	3	90	0.00	30.168 
22:40	68.8	68.8	68.8	65	56.5	0	2	90	0.00	30.168 
22:45	68.8	68.8	68.8	65	56.5	0	2	90	0.00	30.174 
22:50	68.8	68.8	68.8	65	56.5	0	1	90	0.00	30.174 
22:55	68.8	68.8	68.8	65	56.5	0	2	90	0.00	30.174 
23:00	68.8	68.8	68.8	65	56.5	0	1	90	0.00	30.174 
23:05	68.9	68.9	68.9	64	56.2	0	1	90	0.00	30.174 
23:10	68.9	68.9	68.9	64	56.2	0	3	90	0.00	30.174 
23:15	68.9	68.9	68.9	64	56.2	0	3	90	0.00	30.177 
23:20	69.1	69.1	69.1	64	56.4	0	2	90	0.00	30.177 
23:25	69.1	69.1	69.1	64	56.4	0	2	90	0.00	30.177 
23:30	69.1	69.1	69.1	64	56.4	0	1	90	0.00	30.179 
23:35	69.1	69.1	69.1	64	56.4	0	1	90	0.00	30.179 
23:40	68.9	68.9	68.9	65	56.6	1	4	90	0.00	30.179 
23:45	68.9	68.9	68.9	65	56.6	1	6	112	0.00	30.179 
23:50	68.9	68.9	68.9	65	56.6	1	4	135	0.00	30.179 
23:55	68.9	68.9	68.9	66	57.1	0	3	112	0.00	30.179 

CoCoRaHS
IN-AL-39
A2 Web Hosting
Creative Commons License
GoDaddy
search engine by freefind advanced

loaded 2018-11-20 02:22:59 • last modified 2010-11-18 10:43:29
Privacy PolicyDisclaimer
• wx.awcolley.com is powered by PmWiki v.2002016 •
• all content (unless otherwise noted) © 2018 A W Colley